»·PEaware :: 3A-MCH TFFF-TAPA

3A-MCH :: TFFF-TAPA

FLIGHT INFORMATION

Flight Status: Arrived
Operator: Privately registered:
Monaco
More flights under this callsign
Pilot: Timothy W. (9658)
Aircraft: ECLIPSE 500
(EA50)
More flights by this aircraft type
Origin: TFFF Le Lamentin
Martinique
Destination: TAPA V C Bird Intl
Antigua and Barbuda
More flights between these airports :: More routes between these airports
Route: DOM5E DOM A312 KASKI
File this flight plan on PilotEdge
Remarks:
Altitude:
(Current/Filed)
26,000ft
Speed:
(Current/Filed)
274kts
Departed: 02-Aug-18 12:44 PM
Arrived: 02-Aug-18 01:38 PM
Distance/Time
Traveled:
159nm/0:54
Distance/Time
To Go:
Arrived

Flight Plot

Page will automatically refresh every two minutes.

Flight plan parsing failed; only flown route is shown


Map Options




Map Legend


Flown Route
Filed Route
Departure Airport
Arrival Airport
Navaid (VOR, NDB)
Fix

Horizontal Profiles

Position Reports

Time Latitude Longitude Heading Altitude Ground
Speed
02-Aug-18 12:10 14.593548 -61.004846 350 19ft 0kts
02-Aug-18 12:11 14.593548 -61.004846 350 19ft 0kts
02-Aug-18 12:12 14.593548 -61.004846 350 19ft 0kts
02-Aug-18 12:13 14.593548 -61.004846 350 19ft 0kts
02-Aug-18 12:14 14.593548 -61.004846 350 19ft 0kts
02-Aug-18 12:15 14.593548 -61.004846 350 19ft 0kts
02-Aug-18 12:16 14.593548 -61.004846 350 19ft 0kts
02-Aug-18 12:17 14.593548 -61.004846 350 19ft 0kts
02-Aug-18 12:18 14.593548 -61.004846 350 19ft 0kts
02-Aug-18 12:19 14.593548 -61.004846 350 19ft 0kts
02-Aug-18 12:20 14.593548 -61.004846 350 19ft 0kts
02-Aug-18 12:21 14.593548 -61.004846 350 19ft 0kts
02-Aug-18 12:22 14.593548 -61.004846 350 19ft 0kts
02-Aug-18 12:23 14.593548 -61.004846 350 19ft 0kts
02-Aug-18 12:24 14.593548 -61.004846 350 19ft 0kts
02-Aug-18 12:25 14.593548 -61.004846 350 19ft 0kts
02-Aug-18 12:26 14.593548 -61.004846 350 19ft 0kts
02-Aug-18 12:27 14.593548 -61.004846 350 19ft 0kts
02-Aug-18 12:28 14.593548 -61.004846 350 19ft 0kts
02-Aug-18 12:29 14.593548 -61.004846 350 19ft 0kts
02-Aug-18 12:30 14.593548 -61.004846 350 19ft 0kts
02-Aug-18 12:31 14.593548 -61.004846 350 19ft 0kts
02-Aug-18 12:32 14.593548 -61.004846 350 19ft 0kts
02-Aug-18 12:33 14.593548 -61.004846 350 19ft 0kts
02-Aug-18 12:34 14.593548 -61.004846 350 19ft 0kts
02-Aug-18 12:35 14.593548 -61.004846 350 19ft 0kts
02-Aug-18 12:36 14.593548 -61.004846 350 19ft 0kts
02-Aug-18 12:37 14.593548 -61.004846 350 19ft 0kts
02-Aug-18 12:38 14.593548 -61.004846 350 19ft 0kts
02-Aug-18 12:39 14.593548 -61.004846 350 19ft 0kts
02-Aug-18 12:40 14.593548 -61.004846 350 19ft 0kts
02-Aug-18 12:41 14.593099 -61.005783 167 19ft 9kts
02-Aug-18 12:42 14.591629 -61.009249 259 20ft 21kts
02-Aug-18 12:43 14.589465 -61.012363 251 23ft 15kts
02-Aug-18 12:44 14.588725 -61.016559 79 25ft 8kts
02-Aug-18 12:45 14.592939 -60.991119 83 881ft 140kts
02-Aug-18 12:46 14.598064 -60.951634 85 3423ft 145kts
02-Aug-18 12:47 14.615977 -60.919386 356 5755ft 172kts
02-Aug-18 12:48 14.652951 -60.954148 316 7940ft 187kts
02-Aug-18 12:49 14.689182 -60.993532 316 9991ft 193kts
02-Aug-18 12:50 14.729290 -61.029235 0 11884ft 188kts
02-Aug-18 12:51 14.781549 -61.032586 1 13600ft 196kts
02-Aug-18 12:52 14.836472 -61.035878 0 15232ft 203kts
02-Aug-18 12:53 14.893924 -61.039191 359 16799ft 209kts
02-Aug-18 12:54 14.952145 -61.042475 358 18294ft 213kts
02-Aug-18 12:55 15.011445 -61.045793 357 19701ft 216kts
02-Aug-18 12:56 15.071635 -61.049139 357 21021ft 220kts
02-Aug-18 12:57 15.133003 -61.052535 356 22260ft 223kts
02-Aug-18 12:58 15.195492 -61.055979 356 23428ft 227kts
02-Aug-18 12:59 15.258697 -61.059456 356 24528ft 230kts
02-Aug-18 13:00 15.322672 -61.062969 356 25415ft 233kts
02-Aug-18 13:01 15.370608 -61.102842 310 26011ft 233kts
02-Aug-18 13:02 15.417836 -61.154791 312 26049ft 263kts
02-Aug-18 13:03 15.471488 -61.211828 313 26057ft 287kts
02-Aug-18 13:04 15.529200 -61.272459 314 26075ft 303kts
02-Aug-18 13:05 15.603592 -61.312796 341 26074ft 315kts
02-Aug-18 13:06 15.687429 -61.341882 341 26073ft 322kts
02-Aug-18 13:07 15.773187 -61.371306 341 26073ft 327kts
02-Aug-18 13:08 15.859812 -61.400959 341 26072ft 330kts
02-Aug-18 13:09 15.945725 -61.430375 341 26057ft 327kts
02-Aug-18 13:10 16.031682 -61.459827 341 26047ft 324kts
02-Aug-18 13:11 16.116742 -61.488998 341 26047ft 323kts
02-Aug-18 13:12 16.201686 -61.518152 341 26047ft 321kts
02-Aug-18 13:13 16.285815 -61.546223 344 26048ft 321kts
02-Aug-18 13:14 16.371461 -61.572053 344 26047ft 320kts
02-Aug-18 13:15 16.457166 -61.597901 344 26048ft 320kts
02-Aug-18 13:16 16.542634 -61.623695 344 26048ft 320kts
02-Aug-18 13:17 16.627783 -61.649416 344 26046ft 320kts
02-Aug-18 13:18 16.711173 -61.677376 323 26048ft 318kts
02-Aug-18 13:19 16.775510 -61.738703 316 26074ft 317kts
02-Aug-18 13:20 16.839446 -61.801154 316 26084ft 318kts
02-Aug-18 13:21 16.903080 -61.863576 316 25916ft 320kts
02-Aug-18 13:22 16.974431 -61.925070 328 23738ft 368kts
02-Aug-18 13:23 17.049695 -61.991188 285 21185ft 352kts
02-Aug-18 13:24 17.002888 -62.059876 179 18617ft 325kts
02-Aug-18 13:25 16.961131 -61.996125 69 16049ft 314kts
02-Aug-18 13:26 17.037986 -61.969351 3 13510ft 315kts
02-Aug-18 13:27 17.068103 -61.907555 130 11040ft 271kts
02-Aug-18 13:28 17.011033 -61.929536 238 9890ft 276kts
02-Aug-18 13:29 16.973264 -61.998744 238 8900ft 274kts
02-Aug-18 13:30 16.982177 -62.064489 345 7849ft 259kts
02-Aug-18 13:31 17.025243 -62.025213 68 5894ft 206kts
02-Aug-18 13:32 17.044979 -61.979031 68 4137ft 153kts
02-Aug-18 13:33 17.060989 -61.942130 69 3175ft 116kts
02-Aug-18 13:34 17.072871 -61.914762 69 2140ft 101kts
02-Aug-18 13:35 17.084510 -61.887979 69 972ft 99kts
02-Aug-18 13:36 17.095345 -61.863440 64 905ft 93kts
02-Aug-18 13:37 17.108817 -61.840155 63 904ft 93kts
02-Aug-18 13:38 17.122459 -61.816902 63 423ft 93kts
02-Aug-18 13:39 17.134812 -61.795858 59 61ft 31kts
02-Aug-18 13:40 17.137137 -61.793153 314 56ft 0kts
02-Aug-18 13:41 17.137806 -61.794304 354 63ft 7kts
02-Aug-18 13:42 17.137854 -61.794311 351 63ft 0kts
02-Aug-18 13:43 17.137854 -61.794311 351 63ft 0kts
02-Aug-18 13:44 17.137854 -61.794311 351 63ft 0kts

Navigation Log

Ident Type
Flight plan parsing failed, navigation log unavailable